sensor_id;sensor_type;location;lat;lon;timestamp;P1;durP1;ratioP1;P2;durP2;ratioP2
12625;SDS011;6378;42.684;23.372;2023-12-28T00:01:24;118.37;;;71.23;;
12625;SDS011;6378;42.684;23.372;2023-12-28T00:03:50;128.63;;;69.33;;
12625;SDS011;6378;42.684;23.372;2023-12-28T00:06:15;129.27;;;74.63;;
12625;SDS011;6378;42.684;23.372;2023-12-28T00:08:41;114.00;;;69.27;;
12625;SDS011;6378;42.684;23.372;2023-12-28T00:11:07;123.80;;;69.90;;
12625;SDS011;6378;42.684;23.372;2023-12-28T00:13:32;130.33;;;73.70;;
12625;SDS011;6378;42.684;23.372;2023-12-28T00:15:58;117.70;;;68.97;;
12625;SDS011;6378;42.684;23.372;2023-12-28T00:18:23;116.43;;;64.07;;
12625;SDS011;6378;42.684;23.372;2023-12-28T00:20:49;106.00;;;61.80;;
12625;SDS011;6378;42.684;23.372;2023-12-28T00:23:15;105.80;;;60.50;;
12625;SDS011;6378;42.684;23.372;2023-12-28T00:25:40;104.67;;;57.53;;
12625;SDS011;6378;42.684;23.372;2023-12-28T00:28:06;97.70;;;56.47;;
12625;SDS011;6378;42.684;23.372;2023-12-28T00:30:31;99.53;;;54.63;;
12625;SDS011;6378;42.684;23.372;2023-12-28T00:32:57;96.33;;;55.83;;
12625;SDS011;6378;42.684;23.372;2023-12-28T00:35:23;88.23;;;50.40;;
12625;SDS011;6378;42.684;23.372;2023-12-28T00:37:48;87.03;;;51.50;;
12625;SDS011;6378;42.684;23.372;2023-12-28T00:40:14;81.63;;;49.47;;
12625;SDS011;6378;42.684;23.372;2023-12-28T00:42:40;78.40;;;48.27;;
12625;SDS011;6378;42.684;23.372;2023-12-28T00:45:06;77.33;;;46.13;;
12625;SDS011;6378;42.684;23.372;2023-12-28T00:47:32;81.33;;;48.83;;
12625;SDS011;6378;42.684;23.372;2023-12-28T00:49:58;76.80;;;46.83;;
12625;SDS011;6378;42.684;23.372;2023-12-28T00:52:23;67.83;;;39.50;;
12625;SDS011;6378;42.684;23.372;2023-12-28T00:54:49;54.37;;;32.50;;
12625;SDS011;6378;42.684;23.372;2023-12-28T00:57:14;57.07;;;34.60;;
12625;SDS011;6378;42.684;23.372;2023-12-28T00:59:40;48.77;;;30.73;;
12625;SDS011;6378;42.684;23.372;2023-12-28T01:02:05;40.27;;;25.27;;
12625;SDS011;6378;42.684;23.372;2023-12-28T01:04:31;34.30;;;21.80;;
12625;SDS011;6378;42.684;23.372;2023-12-28T01:06:56;29.87;;;20.63;;
12625;SDS011;6378;42.684;23.372;2023-12-28T01:09:23;37.87;;;24.30;;
12625;SDS011;6378;42.684;23.372;2023-12-28T01:11:49;39.07;;;26.13;;
12625;SDS011;6378;42.684;23.372;2023-12-28T01:14:14;40.13;;;26.10;;
12625;SDS011;6378;42.684;23.372;2023-12-28T01:16:40;40.77;;;25.90;;
12625;SDS011;6378;42.684;23.372;2023-12-28T01:19:05;38.37;;;24.63;;
12625;SDS011;6378;42.684;23.372;2023-12-28T01:21:31;34.23;;;21.70;;
12625;SDS011;6378;42.684;23.372;2023-12-28T01:23:56;40.10;;;24.63;;
12625;SDS011;6378;42.684;23.372;2023-12-28T01:26:22;32.23;;;20.63;;
12625;SDS011;6378;42.684;23.372;2023-12-28T01:28:47;36.47;;;22.07;;
12625;SDS011;6378;42.684;23.372;2023-12-28T01:31:13;31.23;;;20.73;;
12625;SDS011;6378;42.684;23.372;2023-12-28T01:33:38;28.63;;;18.70;;
12625;SDS011;6378;42.684;23.372;2023-12-28T01:36:17;29.80;;;19.20;;
12625;SDS011;6378;42.684;23.372;2023-12-28T01:38:43;21.63;;;15.00;;
12625;SDS011;6378;42.684;23.372;2023-12-28T01:41:08;25.87;;;17.17;;
12625;SDS011;6378;42.684;23.372;2023-12-28T01:43:34;32.47;;;19.57;;
12625;SDS011;6378;42.684;23.372;2023-12-28T01:45:59;28.57;;;18.27;;
12625;SDS011;6378;42.684;23.372;2023-12-28T01:48:25;26.80;;;17.57;;
12625;SDS011;6378;42.684;23.372;2023-12-28T01:50:51;27.83;;;18.40;;
12625;SDS011;6378;42.684;23.372;2023-12-28T01:53:17;33.90;;;22.93;;
12625;SDS011;6378;42.684;23.372;2023-12-28T01:55:43;35.90;;;21.40;;
12625;SDS011;6378;42.684;23.372;2023-12-28T01:58:09;39.63;;;23.63;;
12625;SDS011;6378;42.684;23.372;2023-12-28T02:00:35;40.87;;;23.07;;
12625;SDS011;6378;42.684;23.372;2023-12-28T02:03:03;42.97;;;25.33;;
12625;SDS011;6378;42.684;23.372;2023-12-28T02:05:29;37.73;;;24.53;;
12625;SDS011;6378;42.684;23.372;2023-12-28T02:07:55;42.33;;;26.23;;
12625;SDS011;6378;42.684;23.372;2023-12-28T02:10:20;48.60;;;28.63;;
12625;SDS011;6378;42.684;23.372;2023-12-28T02:12:46;51.53;;;33.20;;
12625;SDS011;6378;42.684;23.372;2023-12-28T02:15:12;58.97;;;35.73;;
12625;SDS011;6378;42.684;23.372;2023-12-28T02:17:42;69.47;;;41.43;;
12625;SDS011;6378;42.684;23.372;2023-12-28T02:20:13;69.27;;;42.20;;
12625;SDS011;6378;42.684;23.372;2023-12-28T02:22:40;71.27;;;44.40;;
12625;SDS011;6378;42.684;23.372;2023-12-28T02:25:06;80.07;;;46.87;;
12625;SDS011;6378;42.684;23.372;2023-12-28T02:27:42;73.43;;;45.27;;
12625;SDS011;6378;42.684;23.372;2023-12-28T02:30:13;71.97;;;42.60;;
12625;SDS011;6378;42.684;23.372;2023-12-28T02:35:37;71.33;;;45.03;;
12625;SDS011;6378;42.684;23.372;2023-12-28T02:38:11;69.03;;;42.97;;
12625;SDS011;6378;42.684;23.372;2023-12-28T02:40:40;68.23;;;40.93;;
12625;SDS011;6378;42.684;23.372;2023-12-28T02:43:08;65.43;;;42.47;;
12625;SDS011;6378;42.684;23.372;2023-12-28T02:45:35;57.40;;;37.40;;
12625;SDS011;6378;42.684;23.372;2023-12-28T02:48:01;53.57;;;36.20;;
12625;SDS011;6378;42.684;23.372;2023-12-28T02:50:27;58.80;;;36.23;;
12625;SDS011;6378;42.684;23.372;2023-12-28T02:52:55;59.97;;;37.23;;
12625;SDS011;6378;42.684;23.372;2023-12-28T02:55:21;58.30;;;36.03;;
12625;SDS011;6378;42.684;23.372;2023-12-28T02:57:49;57.87;;;35.60;;
12625;SDS011;6378;42.684;23.372;2023-12-28T03:00:15;56.07;;;35.70;;
12625;SDS011;6378;42.684;23.372;2023-12-28T03:02:40;55.13;;;35.03;;
12625;SDS011;6378;42.684;23.372;2023-12-28T03:05:06;50.90;;;33.57;;
12625;SDS011;6378;42.684;23.372;2023-12-28T03:07:33;55.13;;;32.83;;
12625;SDS011;6378;42.684;23.372;2023-12-28T03:09:59;47.53;;;32.67;;
12625;SDS011;6378;42.684;23.372;2023-12-28T03:12:24;56.43;;;33.20;;
12625;SDS011;6378;42.684;23.372;2023-12-28T03:14:50;53.87;;;33.93;;
12625;SDS011;6378;42.684;23.372;2023-12-28T03:17:16;49.00;;;30.33;;
12625;SDS011;6378;42.684;23.372;2023-12-28T03:19:41;50.83;;;30.90;;
12625;SDS011;6378;42.684;23.372;2023-12-28T03:22:07;50.93;;;30.57;;
12625;SDS011;6378;42.684;23.372;2023-12-28T03:24:32;45.83;;;29.60;;
12625;SDS011;6378;42.684;23.372;2023-12-28T03:26:58;44.17;;;29.00;;
12625;SDS011;6378;42.684;23.372;2023-12-28T03:29:23;41.67;;;27.90;;
12625;SDS011;6378;42.684;23.372;2023-12-28T03:31:49;48.17;;;30.03;;
12625;SDS011;6378;42.684;23.372;2023-12-28T03:34:15;45.70;;;28.60;;
12625;SDS011;6378;42.684;23.372;2023-12-28T03:36:40;47.33;;;28.77;;
12625;SDS011;6378;42.684;23.372;2023-12-28T03:39:06;43.17;;;27.20;;
12625;SDS011;6378;42.684;23.372;2023-12-28T03:41:32;41.47;;;26.87;;
12625;SDS011;6378;42.684;23.372;2023-12-28T03:43:58;42.83;;;27.00;;
12625;SDS011;6378;42.684;23.372;2023-12-28T03:46:23;39.20;;;27.47;;
12625;SDS011;6378;42.684;23.372;2023-12-28T03:48:49;39.63;;;26.33;;
12625;SDS011;6378;42.684;23.372;2023-12-28T03:51:15;38.13;;;25.00;;
12625;SDS011;6378;42.684;23.372;2023-12-28T03:53:41;45.23;;;26.13;;
12625;SDS011;6378;42.684;23.372;2023-12-28T03:56:07;43.63;;;25.10;;
12625;SDS011;6378;42.684;23.372;2023-12-28T03:58:32;36.93;;;25.77;;
12625;SDS011;6378;42.684;23.372;2023-12-28T04:00:58;41.23;;;26.13;;
12625;SDS011;6378;42.684;23.372;2023-12-28T04:03:23;40.33;;;25.83;;
12625;SDS011;6378;42.684;23.372;2023-12-28T04:05:50;43.00;;;26.80;;
12625;SDS011;6378;42.684;23.372;2023-12-28T04:08:16;40.63;;;27.23;;
12625;SDS011;6378;42.684;23.372;2023-12-28T04:10:41;40.17;;;25.30;;
12625;SDS011;6378;42.684;23.372;2023-12-28T04:13:07;44.00;;;27.73;;
12625;SDS011;6378;42.684;23.372;2023-12-28T04:15:32;41.30;;;26.33;;
12625;SDS011;6378;42.684;23.372;2023-12-28T04:17:58;41.60;;;26.63;;
12625;SDS011;6378;42.684;23.372;2023-12-28T04:20:23;45.50;;;28.50;;
12625;SDS011;6378;42.684;23.372;2023-12-28T04:22:49;41.47;;;26.60;;
12625;SDS011;6378;42.684;23.372;2023-12-28T04:25:14;40.37;;;27.93;;
12625;SDS011;6378;42.684;23.372;2023-12-28T04:27:43;41.67;;;27.67;;
12625;SDS011;6378;42.684;23.372;2023-12-28T04:30:11;45.77;;;28.50;;
12625;SDS011;6378;42.684;23.372;2023-12-28T04:32:37;46.43;;;30.43;;
12625;SDS011;6378;42.684;23.372;2023-12-28T04:35:03;44.97;;;29.13;;
12625;SDS011;6378;42.684;23.372;2023-12-28T04:37:28;42.97;;;30.37;;
12625;SDS011;6378;42.684;23.372;2023-12-28T04:39:55;47.17;;;29.53;;
12625;SDS011;6378;42.684;23.372;2023-12-28T04:42:21;44.00;;;28.97;;
12625;SDS011;6378;42.684;23.372;2023-12-28T04:44:47;44.97;;;29.03;;
12625;SDS011;6378;42.684;23.372;2023-12-28T04:47:12;49.07;;;30.93;;
12625;SDS011;6378;42.684;23.372;2023-12-28T04:49:38;46.53;;;30.37;;
12625;SDS011;6378;42.684;23.372;2023-12-28T04:52:03;48.07;;;29.80;;
12625;SDS011;6378;42.684;23.372;2023-12-28T04:54:29;44.50;;;29.60;;
12625;SDS011;6378;42.684;23.372;2023-12-28T04:56:55;46.30;;;29.93;;
12625;SDS011;6378;42.684;23.372;2023-12-28T04:59:20;55.67;;;36.30;;
12625;SDS011;6378;42.684;23.372;2023-12-28T05:01:46;51.03;;;34.33;;
12625;SDS011;6378;42.684;23.372;2023-12-28T05:04:11;61.27;;;40.90;;
12625;SDS011;6378;42.684;23.372;2023-12-28T05:06:37;59.00;;;37.90;;
12625;SDS011;6378;42.684;23.372;2023-12-28T05:09:03;53.77;;;37.10;;
12625;SDS011;6378;42.684;23.372;2023-12-28T05:11:29;57.80;;;37.50;;
12625;SDS011;6378;42.684;23.372;2023-12-28T05:13:55;66.37;;;43.20;;
12625;SDS011;6378;42.684;23.372;2023-12-28T05:16:20;61.83;;;41.63;;
12625;SDS011;6378;42.684;23.372;2023-12-28T05:18:46;65.00;;;42.77;;
12625;SDS011;6378;42.684;23.372;2023-12-28T05:21:12;62.53;;;41.10;;
12625;SDS011;6378;42.684;23.372;2023-12-28T05:23:38;63.60;;;41.70;;
12625;SDS011;6378;42.684;23.372;2023-12-28T05:26:04;67.60;;;41.93;;
12625;SDS011;6378;42.684;23.372;2023-12-28T05:28:29;63.80;;;40.93;;
12625;SDS011;6378;42.684;23.372;2023-12-28T05:30:55;60.33;;;39.83;;
12625;SDS011;6378;42.684;23.372;2023-12-28T05:33:20;61.53;;;40.83;;
12625;SDS011;6378;42.684;23.372;2023-12-28T05:35:46;63.87;;;39.40;;
12625;SDS011;6378;42.684;23.372;2023-12-28T05:38:11;55.43;;;38.53;;
12625;SDS011;6378;42.684;23.372;2023-12-28T05:40:37;66.43;;;40.07;;
12625;SDS011;6378;42.684;23.372;2023-12-28T05:43:02;63.87;;;41.30;;
12625;SDS011;6378;42.684;23.372;2023-12-28T05:45:28;61.77;;;38.30;;
12625;SDS011;6378;42.684;23.372;2023-12-28T05:47:54;61.53;;;40.37;;
12625;SDS011;6378;42.684;23.372;2023-12-28T05:50:19;61.23;;;38.57;;
12625;SDS011;6378;42.684;23.372;2023-12-28T05:52:44;61.07;;;37.00;;
12625;SDS011;6378;42.684;23.372;2023-12-28T05:55:11;64.07;;;40.57;;
12625;SDS011;6378;42.684;23.372;2023-12-28T05:57:36;60.40;;;39.27;;
12625;SDS011;6378;42.684;23.372;2023-12-28T06:00:03;58.63;;;38.67;;
12625;SDS011;6378;42.684;23.372;2023-12-28T06:02:31;60.80;;;39.63;;
12625;SDS011;6378;42.684;23.372;2023-12-28T06:04:56;65.73;;;43.80;;
12625;SDS011;6378;42.684;23.372;2023-12-28T06:07:22;69.77;;;43.07;;
12625;SDS011;6378;42.684;23.372;2023-12-28T06:09:47;70.30;;;44.57;;
12625;SDS011;6378;42.684;23.372;2023-12-28T06:12:13;72.20;;;44.23;;
12625;SDS011;6378;42.684;23.372;2023-12-28T06:14:39;79.93;;;49.90;;
12625;SDS011;6378;42.684;23.372;2023-12-28T06:17:05;73.83;;;48.80;;
12625;SDS011;6378;42.684;23.372;2023-12-28T06:19:30;93.13;;;58.83;;
12625;SDS011;6378;42.684;23.372;2023-12-28T06:21:56;115.40;;;70.87;;
12625;SDS011;6378;42.684;23.372;2023-12-28T06:24:23;132.33;;;83.53;;
12625;SDS011;6378;42.684;23.372;2023-12-28T06:26:49;137.17;;;86.40;;
12625;SDS011;6378;42.684;23.372;2023-12-28T06:29:14;136.03;;;87.97;;
12625;SDS011;6378;42.684;23.372;2023-12-28T06:31:40;137.50;;;90.47;;
12625;SDS011;6378;42.684;23.372;2023-12-28T06:34:06;142.07;;;82.27;;
12625;SDS011;6378;42.684;23.372;2023-12-28T06:36:32;126.37;;;75.50;;
12625;SDS011;6378;42.684;23.372;2023-12-28T06:38:58;126.60;;;76.87;;
12625;SDS011;6378;42.684;23.372;2023-12-28T06:41:24;110.60;;;69.07;;
12625;SDS011;6378;42.684;23.372;2023-12-28T06:43:50;103.73;;;65.97;;
12625;SDS011;6378;42.684;23.372;2023-12-28T06:46:16;88.70;;;54.60;;
12625;SDS011;6378;42.684;23.372;2023-12-28T06:48:42;95.87;;;59.63;;
12625;SDS011;6378;42.684;23.372;2023-12-28T06:51:08;89.07;;;55.17;;
12625;SDS011;6378;42.684;23.372;2023-12-28T06:53:34;71.93;;;48.20;;
12625;SDS011;6378;42.684;23.372;2023-12-28T06:56:00;62.93;;;41.87;;
12625;SDS011;6378;42.684;23.372;2023-12-28T06:58:25;64.13;;;43.00;;
12625;SDS011;6378;42.684;23.372;2023-12-28T07:00:51;62.37;;;44.40;;
12625;SDS011;6378;42.684;23.372;2023-12-28T07:03:16;148.10;;;86.47;;
12625;SDS011;6378;42.684;23.372;2023-12-28T07:05:42;66.73;;;47.87;;
12625;SDS011;6378;42.684;23.372;2023-12-28T07:08:07;66.17;;;44.93;;
12625;SDS011;6378;42.684;23.372;2023-12-28T07:10:33;72.93;;;46.10;;
12625;SDS011;6378;42.684;23.372;2023-12-28T07:12:58;65.50;;;43.50;;
12625;SDS011;6378;42.684;23.372;2023-12-28T07:15:24;53.63;;;39.10;;
12625;SDS011;6378;42.684;23.372;2023-12-28T07:17:50;52.17;;;39.43;;
12625;SDS011;6378;42.684;23.372;2023-12-28T07:20:16;63.00;;;42.00;;
12625;SDS011;6378;42.684;23.372;2023-12-28T07:22:41;63.13;;;40.40;;
12625;SDS011;6378;42.684;23.372;2023-12-28T07:25:07;59.47;;;40.90;;
12625;SDS011;6378;42.684;23.372;2023-12-28T07:27:35;52.90;;;37.50;;
12625;SDS011;6378;42.684;23.372;2023-12-28T07:30:02;57.27;;;37.80;;
12625;SDS011;6378;42.684;23.372;2023-12-28T07:32:30;52.87;;;35.73;;
12625;SDS011;6378;42.684;23.372;2023-12-28T07:34:56;55.10;;;38.07;;
12625;SDS011;6378;42.684;23.372;2023-12-28T07:37:21;56.37;;;37.00;;
12625;SDS011;6378;42.684;23.372;2023-12-28T07:39:47;53.40;;;35.77;;
12625;SDS011;6378;42.684;23.372;2023-12-28T07:42:12;49.20;;;35.77;;
12625;SDS011;6378;42.684;23.372;2023-12-28T07:44:38;44.20;;;33.03;;
12625;SDS011;6378;42.684;23.372;2023-12-28T07:47:04;33.93;;;26.40;;
12625;SDS011;6378;42.684;23.372;2023-12-28T07:49:30;58.33;;;41.17;;
12625;SDS011;6378;42.684;23.372;2023-12-28T07:51:56;32.77;;;25.43;;
12625;SDS011;6378;42.684;23.372;2023-12-28T07:54:22;36.53;;;27.53;;
12625;SDS011;6378;42.684;23.372;2023-12-28T07:56:48;38.30;;;29.70;;
12625;SDS011;6378;42.684;23.372;2023-12-28T07:59:13;44.20;;;32.33;;
12625;SDS011;6378;42.684;23.372;2023-12-28T08:01:38;40.93;;;29.30;;
12625;SDS011;6378;42.684;23.372;2023-12-28T08:04:04;44.60;;;32.43;;
12625;SDS011;6378;42.684;23.372;2023-12-28T08:06:29;48.97;;;34.30;;
12625;SDS011;6378;42.684;23.372;2023-12-28T08:08:58;51.33;;;35.03;;
12625;SDS011;6378;42.684;23.372;2023-12-28T08:11:27;54.43;;;37.13;;
12625;SDS011;6378;42.684;23.372;2023-12-28T08:13:53;57.13;;;36.83;;
12625;SDS011;6378;42.684;23.372;2023-12-28T08:16:19;39.40;;;28.97;;
12625;SDS011;6378;42.684;23.372;2023-12-28T08:18:44;40.80;;;30.90;;
12625;SDS011;6378;42.684;23.372;2023-12-28T08:21:10;52.00;;;36.53;;
12625;SDS011;6378;42.684;23.372;2023-12-28T08:23:35;41.77;;;31.50;;
12625;SDS011;6378;42.684;23.372;2023-12-28T08:26:01;40.47;;;29.93;;
12625;SDS011;6378;42.684;23.372;2023-12-28T08:28:27;44.87;;;33.30;;
12625;SDS011;6378;42.684;23.372;2023-12-28T08:30:53;40.37;;;31.07;;
12625;SDS011;6378;42.684;23.372;2023-12-28T08:33:19;38.50;;;30.20;;
12625;SDS011;6378;42.684;23.372;2023-12-28T08:35:45;38.93;;;28.20;;
12625;SDS011;6378;42.684;23.372;2023-12-28T08:38:11;41.17;;;31.37;;
12625;SDS011;6378;42.684;23.372;2023-12-28T08:40:36;40.47;;;31.93;;
12625;SDS011;6378;42.684;23.372;2023-12-28T08:43:02;37.23;;;28.57;;
12625;SDS011;6378;42.684;23.372;2023-12-28T08:45:27;44.27;;;31.53;;
12625;SDS011;6378;42.684;23.372;2023-12-28T08:47:52;44.20;;;30.93;;
12625;SDS011;6378;42.684;23.372;2023-12-28T08:50:18;44.10;;;30.17;;
12625;SDS011;6378;42.684;23.372;2023-12-28T08:52:44;50.40;;;32.43;;
12625;SDS011;6378;42.684;23.372;2023-12-28T08:55:09;38.90;;;25.77;;
12625;SDS011;6378;42.684;23.372;2023-12-28T08:57:35;34.80;;;25.83;;
12625;SDS011;6378;42.684;23.372;2023-12-28T09:00:00;42.17;;;29.60;;
12625;SDS011;6378;42.684;23.372;2023-12-28T09:02:28;47.03;;;32.37;;
12625;SDS011;6378;42.684;23.372;2023-12-28T09:04:54;44.47;;;32.60;;
12625;SDS011;6378;42.684;23.372;2023-12-28T09:07:19;50.60;;;35.20;;
12625;SDS011;6378;42.684;23.372;2023-12-28T09:09:45;48.42;;;39.60;;
12625;SDS011;6378;42.684;23.372;2023-12-28T09:12:11;51.00;;;36.20;;
12625;SDS011;6378;42.684;23.372;2023-12-28T09:14:36;47.93;;;34.93;;
12625;SDS011;6378;42.684;23.372;2023-12-28T09:17:02;46.03;;;33.33;;
12625;SDS011;6378;42.684;23.372;2023-12-28T09:19:27;51.03;;;35.43;;
12625;SDS011;6378;42.684;23.372;2023-12-28T09:21:53;52.30;;;35.43;;
12625;SDS011;6378;42.684;23.372;2023-12-28T09:24:18;47.77;;;35.60;;
12625;SDS011;6378;42.684;23.372;2023-12-28T09:26:44;49.47;;;36.03;;
12625;SDS011;6378;42.684;23.372;2023-12-28T09:29:10;52.27;;;37.40;;
12625;SDS011;6378;42.684;23.372;2023-12-28T09:31:35;53.03;;;36.53;;
12625;SDS011;6378;42.684;23.372;2023-12-28T09:34:01;54.67;;;37.43;;
12625;SDS011;6378;42.684;23.372;2023-12-28T09:36:26;53.93;;;36.77;;
12625;SDS011;6378;42.684;23.372;2023-12-28T09:38:51;57.07;;;36.47;;
12625;SDS011;6378;42.684;23.372;2023-12-28T09:41:17;50.07;;;36.30;;
12625;SDS011;6378;42.684;23.372;2023-12-28T09:46:19;53.07;;;34.80;;
12625;SDS011;6378;42.684;23.372;2023-12-28T09:48:45;50.90;;;38.00;;
12625;SDS011;6378;42.684;23.372;2023-12-28T09:51:11;51.87;;;36.20;;
12625;SDS011;6378;42.684;23.372;2023-12-28T09:53:37;54.27;;;36.63;;
12625;SDS011;6378;42.684;23.372;2023-12-28T09:56:03;50.33;;;36.57;;
12625;SDS011;6378;42.684;23.372;2023-12-28T09:58:30;48.63;;;33.43;;
12625;SDS011;6378;42.684;23.372;2023-12-28T10:00:58;55.60;;;35.80;;
12625;SDS011;6378;42.684;23.372;2023-12-28T10:03:25;46.23;;;31.83;;
12625;SDS011;6378;42.684;23.372;2023-12-28T10:05:51;41.37;;;29.47;;
12625;SDS011;6378;42.684;23.372;2023-12-28T10:08:16;42.50;;;30.87;;
12625;SDS011;6378;42.684;23.372;2023-12-28T10:10:42;44.53;;;32.43;;
12625;SDS011;6378;42.684;23.372;2023-12-28T10:13:16;47.97;;;31.93;;
12625;SDS011;6378;42.684;23.372;2023-12-28T10:15:42;40.93;;;31.10;;
12625;SDS011;6378;42.684;23.372;2023-12-28T10:18:08;41.67;;;30.23;;
12625;SDS011;6378;42.684;23.372;2023-12-28T10:20:34;45.07;;;31.20;;
12625;SDS011;6378;42.684;23.372;2023-12-28T10:22:59;38.40;;;27.87;;
12625;SDS011;6378;42.684;23.372;2023-12-28T10:25:26;34.17;;;26.17;;
12625;SDS011;6378;42.684;23.372;2023-12-28T10:27:52;35.63;;;25.80;;
12625;SDS011;6378;42.684;23.372;2023-12-28T10:30:19;36.30;;;26.10;;
12625;SDS011;6378;42.684;23.372;2023-12-28T10:32:46;33.23;;;25.33;;
12625;SDS011;6378;42.684;23.372;2023-12-28T10:35:11;38.27;;;27.37;;
12625;SDS011;6378;42.684;23.372;2023-12-28T10:37:39;39.90;;;27.33;;
12625;SDS011;6378;42.684;23.372;2023-12-28T10:40:10;39.63;;;28.47;;
12625;SDS011;6378;42.684;23.372;2023-12-28T10:42:54;44.37;;;30.47;;
12625;SDS011;6378;42.684;23.372;2023-12-28T10:45:24;35.77;;;27.20;;
12625;SDS011;6378;42.684;23.372;2023-12-28T10:47:56;41.90;;;28.77;;
12625;SDS011;6378;42.684;23.372;2023-12-28T10:50:30;44.67;;;33.43;;
12625;SDS011;6378;42.684;23.372;2023-12-28T10:53:04;44.70;;;33.43;;
12625;SDS011;6378;42.684;23.372;2023-12-28T10:58:52;39.03;;;27.13;;
12625;SDS011;6378;42.684;23.372;2023-12-28T11:01:31;41.27;;;29.63;;
12625;SDS011;6378;42.684;23.372;2023-12-28T11:04:02;40.77;;;29.03;;
12625;SDS011;6378;42.684;23.372;2023-12-28T11:06:33;42.30;;;30.87;;
12625;SDS011;6378;42.684;23.372;2023-12-28T11:09:00;42.80;;;32.70;;
12625;SDS011;6378;42.684;23.372;2023-12-28T11:11:26;47.80;;;31.93;;
12625;SDS011;6378;42.684;23.372;2023-12-28T11:13:53;43.40;;;30.67;;
12625;SDS011;6378;42.684;23.372;2023-12-28T11:16:21;45.30;;;30.60;;
12625;SDS011;6378;42.684;23.372;2023-12-28T11:18:47;43.03;;;29.60;;
12625;SDS011;6378;42.684;23.372;2023-12-28T11:21:14;41.13;;;29.97;;
12625;SDS011;6378;42.684;23.372;2023-12-28T11:23:41;43.80;;;31.03;;
12625;SDS011;6378;42.684;23.372;2023-12-28T11:26:20;41.93;;;29.67;;
12625;SDS011;6378;42.684;23.372;2023-12-28T11:28:46;41.57;;;29.93;;
12625;SDS011;6378;42.684;23.372;2023-12-28T11:31:15;41.77;;;29.97;;
12625;SDS011;6378;42.684;23.372;2023-12-28T11:33:47;44.47;;;30.30;;
12625;SDS011;6378;42.684;23.372;2023-12-28T11:36:21;41.17;;;30.60;;
12625;SDS011;6378;42.684;23.372;2023-12-28T11:38:52;42.90;;;30.30;;
12625;SDS011;6378;42.684;23.372;2023-12-28T11:41:21;38.23;;;29.27;;
12625;SDS011;6378;42.684;23.372;2023-12-28T11:43:55;42.80;;;30.80;;
12625;SDS011;6378;42.684;23.372;2023-12-28T11:46:24;42.83;;;30.53;;
12625;SDS011;6378;42.684;23.372;2023-12-28T11:48:50;45.17;;;32.10;;
12625;SDS011;6378;42.684;23.372;2023-12-28T11:51:16;46.00;;;33.57;;
12625;SDS011;6378;42.684;23.372;2023-12-28T11:53:42;45.43;;;33.57;;
12625;SDS011;6378;42.684;23.372;2023-12-28T11:56:11;48.97;;;35.47;;
12625;SDS011;6378;42.684;23.372;2023-12-28T11:58:40;56.07;;;35.67;;
12625;SDS011;6378;42.684;23.372;2023-12-28T12:01:09;43.63;;;31.63;;
12625;SDS011;6378;42.684;23.372;2023-12-28T12:03:34;43.30;;;31.30;;
12625;SDS011;6378;42.684;23.372;2023-12-28T12:06:00;46.00;;;32.43;;
12625;SDS011;6378;42.684;23.372;2023-12-28T12:08:25;49.17;;;31.60;;
12625;SDS011;6378;42.684;23.372;2023-12-28T12:11:00;49.23;;;31.87;;
12625;SDS011;6378;42.684;23.372;2023-12-28T12:13:29;48.33;;;32.70;;
12625;SDS011;6378;42.684;23.372;2023-12-28T12:15:55;48.90;;;31.50;;
12625;SDS011;6378;42.684;23.372;2023-12-28T12:18:21;47.37;;;31.53;;
12625;SDS011;6378;42.684;23.372;2023-12-28T12:20:47;42.97;;;31.07;;
12625;SDS011;6378;42.684;23.372;2023-12-28T12:23:14;43.03;;;32.17;;
12625;SDS011;6378;42.684;23.372;2023-12-28T12:25:40;42.63;;;31.15;;
12625;SDS011;6378;42.684;23.372;2023-12-28T12:28:06;44.13;;;30.40;;
12625;SDS011;6378;42.684;23.372;2023-12-28T12:30:32;41.77;;;29.77;;
12625;SDS011;6378;42.684;23.372;2023-12-28T12:32:58;42.73;;;30.03;;
12625;SDS011;6378;42.684;23.372;2023-12-28T12:35:24;36.38;;;31.33;;
12625;SDS011;6378;42.684;23.372;2023-12-28T12:37:49;38.65;;;28.05;;
12625;SDS011;6378;42.684;23.372;2023-12-28T12:40:16;40.78;;;27.88;;
12625;SDS011;6378;42.684;23.372;2023-12-28T12:42:51;33.38;;;26.80;;
12625;SDS011;6378;42.684;23.372;2023-12-28T12:45:19;39.67;;;28.00;;
12625;SDS011;6378;42.684;23.372;2023-12-28T12:47:46;39.37;;;29.37;;
12625;SDS011;6378;42.684;23.372;2023-12-28T12:50:11;37.95;;;28.67;;
12625;SDS011;6378;42.684;23.372;2023-12-28T12:52:37;33.92;;;25.52;;
12625;SDS011;6378;42.684;23.372;2023-12-28T12:55:04;32.60;;;25.33;;
12625;SDS011;6378;42.684;23.372;2023-12-28T12:57:30;38.72;;;25.98;;
12625;SDS011;6378;42.684;23.372;2023-12-28T12:59:56;39.03;;;27.83;;
12625;SDS011;6378;42.684;23.372;2023-12-28T13:02:24;36.33;;;27.38;;
12625;SDS011;6378;42.684;23.372;2023-12-28T13:04:52;39.75;;;26.92;;
12625;SDS011;6378;42.684;23.372;2023-12-28T13:07:21;40.97;;;28.63;;
12625;SDS011;6378;42.684;23.372;2023-12-28T13:09:46;39.30;;;27.30;;
12625;SDS011;6378;42.684;23.372;2023-12-28T13:12:11;38.45;;;27.75;;
12625;SDS011;6378;42.684;23.372;2023-12-28T13:14:37;37.85;;;26.60;;
12625;SDS011;6378;42.684;23.372;2023-12-28T13:17:03;38.63;;;26.08;;
12625;SDS011;6378;42.684;23.372;2023-12-28T13:19:28;39.15;;;27.73;;
12625;SDS011;6378;42.684;23.372;2023-12-28T13:21:54;40.63;;;27.00;;
12625;SDS011;6378;42.684;23.372;2023-12-28T13:24:19;37.78;;;26.33;;
12625;SDS011;6378;42.684;23.372;2023-12-28T13:26:45;35.70;;;26.33;;
12625;SDS011;6378;42.684;23.372;2023-12-28T13:29:10;42.10;;;25.92;;
12625;SDS011;6378;42.684;23.372;2023-12-28T13:31:36;38.55;;;26.10;;
12625;SDS011;6378;42.684;23.372;2023-12-28T13:34:01;40.30;;;26.05;;
12625;SDS011;6378;42.684;23.372;2023-12-28T13:36:27;38.70;;;29.02;;
12625;SDS011;6378;42.684;23.372;2023-12-28T13:38:53;41.42;;;26.95;;
12625;SDS011;6378;42.684;23.372;2023-12-28T13:41:19;39.55;;;27.63;;
12625;SDS011;6378;42.684;23.372;2023-12-28T13:43:44;40.05;;;28.15;;
12625;SDS011;6378;42.684;23.372;2023-12-28T13:46:10;39.15;;;25.73;;
12625;SDS011;6378;42.684;23.372;2023-12-28T13:48:36;51.63;;;35.10;;
12625;SDS011;6378;42.684;23.372;2023-12-28T13:51:04;43.20;;;29.13;;
12625;SDS011;6378;42.684;23.372;2023-12-28T13:53:30;35.53;;;25.70;;
12625;SDS011;6378;42.684;23.372;2023-12-28T13:55:59;44.13;;;29.73;;
12625;SDS011;6378;42.684;23.372;2023-12-28T13:58:24;44.92;;;28.75;;
12625;SDS011;6378;42.684;23.372;2023-12-28T14:00:50;45.45;;;30.02;;
12625;SDS011;6378;42.684;23.372;2023-12-28T14:03:15;40.30;;;27.25;;
12625;SDS011;6378;42.684;23.372;2023-12-28T14:05:42;34.42;;;24.83;;
12625;SDS011;6378;42.684;23.372;2023-12-28T14:08:08;35.10;;;24.60;;
12625;SDS011;6378;42.684;23.372;2023-12-28T14:10:33;35.72;;;24.83;;
12625;SDS011;6378;42.684;23.372;2023-12-28T14:12:59;31.73;;;23.95;;
12625;SDS011;6378;42.684;23.372;2023-12-28T14:15:25;38.03;;;25.88;;
12625;SDS011;6378;42.684;23.372;2023-12-28T14:17:50;37.50;;;27.77;;
12625;SDS011;6378;42.684;23.372;2023-12-28T14:20:16;39.22;;;28.45;;
12625;SDS011;6378;42.684;23.372;2023-12-28T14:22:42;43.57;;;28.47;;
12625;SDS011;6378;42.684;23.372;2023-12-28T14:25:08;41.05;;;25.70;;